Boo Sonier — WDG3281 — position and weather

sailwx.info

Track history (hours):
 
Tides and Currents Weather Stations Pressure Air Temp Water Temp Dewpoint Dewpoint Depression Visibility Wind Speed Wind Dir Waves Ship Positions

Boo Sonier

Owner: LeBeouf Bros. Towing, LLC, Houma, LA. More information available from US FCC via Universal Licensing System and Coast Guard Vessel Documentation Center.

Last reported at 2016-Feb-04 05:18 UTC. Time now 2016-Feb-09 11:50 UTC.
Position N 29°33' W 090°28'.

Length 21 m.

Type: Tug. MMSI: 367524420.

Date/timePositionNaut miles runAvg speedWind from/ knotsBaromVisibWave heightAir tempDewpointWater temp
2016-Feb-04 05:18N 29°33' W 090°28'4 5.6
2016-Feb-04 04:33N 29°34' W 090°33'3 2.9
2016-Feb-04 03:30N 29°35' W 090°36'0 0.0
2016-Feb-04 02:30N 29°35' W 090°36'0 0.0
2016-Feb-04 01:30N 29°35' W 090°36'1 1.2
2016-Feb-04 00:33N 29°35' W 090°37'4 4.0
2016-Feb-03 23:34N 29°36' W 090°41'1 0.6
2016-Feb-03 22:32N 29°37' W 090°42'0 0.0
2016-Feb-03 21:32N 29°37' W 090°42'0 0.0
2016-Feb-03 20:32N 29°37' W 090°42'0 0.0
2016-Feb-03 19:32N 29°37' W 090°42'0 0.0
2016-Feb-03 18:32N 29°37' W 090°42'0 0.0
2016-Feb-03 17:32N 29°37' W 090°42'0 0.0
2016-Feb-03 16:32N 29°37' W 090°42'0 0.0
2016-Feb-03 15:32N 29°37' W 090°42'0 0.0
2016-Feb-03 14:32N 29°37' W 090°42'0 0.0
2016-Feb-03 13:32N 29°37' W 090°42'0 0.0
2016-Feb-03 12:29N 29°37' W 090°42'0 0.0
2016-Feb-03 11:32N 29°37' W 090°42'0 0.0
2016-Feb-03 10:32N 29°37' W 090°42'0 0.0
2016-Feb-03 09:29N 29°37' W 090°42'0 0.0
2016-Feb-03 08:32N 29°37' W 090°42'3 3.4
2016-Feb-03 07:33N 29°35' W 090°38'2 2.3
2016-Feb-03 06:33N 29°35' W 090°36'5 5.2
2016-Feb-03 05:33N 29°37' W 090°41'3 3.0
2016-Feb-03 04:33N 29°34' W 090°43'5 5.4
2016-Feb-03 03:33N 29°32' W 090°49'  
2016-Jan-31 14:33N 29°32' W 090°48'5 5.5
2016-Jan-31 13:33N 29°35' W 090°43'5 4.9
2016-Jan-31 12:34N 29°35' W 090°37'1 1.1
2016-Jan-31 11:30N 29°35' W 090°36'0 0.0
2016-Jan-31 10:30N 29°35' W 090°36'0 0.0
2016-Jan-31 09:30N 29°35' W 090°36'0 0.0
2016-Jan-31 08:30N 29°35' W 090°36'0 0.0
2016-Jan-31 07:30N 29°35' W 090°36'0 0.0
2016-Jan-31 06:30N 29°35' W 090°36'0 0.0
2016-Jan-31 05:30N 29°35' W 090°36'0 0.0
2016-Jan-31 04:29N 29°35' W 090°36'0 0.0
2016-Jan-31 03:30N 29°35' W 090°36'2 2.3
2016-Jan-31 02:33N 29°34' W 090°34'  
Track history (hours):
 
Tides and Currents Weather Stations Pressure Air Temp Water Temp Dewpoint Dewpoint Depression Visibility Wind Speed Wind Dir Waves Ship Positions

Boo Sonier

Owner: LeBeouf Bros. Towing, LLC, Houma, LA. More information available from US FCC via Universal Licensing System and Coast Guard Vessel Documentation Center.

Last reported at 2016-Feb-04 05:18 UTC. Time now 2016-Feb-09 11:50 UTC.
Position N 29°33' W 090°28'.

Length 21 m.

Type: Tug. MMSI: 367524420.

Date/timePositionNaut miles runAvg speedWind from/ knotsBaromVisibWave heightAir tempDewpointWater temp
2016-Feb-04 05:18N 29°33' W 090°28'4 5.6
2016-Feb-04 04:33N 29°34' W 090°33'3 2.9
2016-Feb-04 03:30N 29°35' W 090°36'0 0.0
2016-Feb-04 02:30N 29°35' W 090°36'0 0.0
2016-Feb-04 01:30N 29°35' W 090°36'1 1.2
2016-Feb-04 00:33N 29°35' W 090°37'4 4.0
2016-Feb-03 23:34N 29°36' W 090°41'1 0.6
2016-Feb-03 22:32N 29°37' W 090°42'0 0.0
2016-Feb-03 21:32N 29°37' W 090°42'0 0.0
2016-Feb-03 20:32N 29°37' W 090°42'0 0.0
2016-Feb-03 19:32N 29°37' W 090°42'0 0.0
2016-Feb-03 18:32N 29°37' W 090°42'0 0.0
2016-Feb-03 17:32N 29°37' W 090°42'0 0.0
2016-Feb-03 16:32N 29°37' W 090°42'0 0.0
2016-Feb-03 15:32N 29°37' W 090°42'0 0.0
2016-Feb-03 14:32N 29°37' W 090°42'0 0.0
2016-Feb-03 13:32N 29°37' W 090°42'0 0.0
2016-Feb-03 12:29N 29°37' W 090°42'0 0.0
2016-Feb-03 11:32N 29°37' W 090°42'0 0.0
2016-Feb-03 10:32N 29°37' W 090°42'0 0.0
2016-Feb-03 09:29N 29°37' W 090°42'0 0.0
2016-Feb-03 08:32N 29°37' W 090°42'3 3.4
2016-Feb-03 07:33N 29°35' W 090°38'2 2.3
2016-Feb-03 06:33N 29°35' W 090°36'5 5.2
2016-Feb-03 05:33N 29°37' W 090°41'3 3.0
2016-Feb-03 04:33N 29°34' W 090°43'5 5.4
2016-Feb-03 03:33N 29°32' W 090°49'  
2016-Jan-31 14:33N 29°32' W 090°48'5 5.5
2016-Jan-31 13:33N 29°35' W 090°43'5 4.9
2016-Jan-31 12:34N 29°35' W 090°37'1 1.1
2016-Jan-31 11:30N 29°35' W 090°36'0 0.0
2016-Jan-31 10:30N 29°35' W 090°36'0 0.0
2016-Jan-31 09:30N 29°35' W 090°36'0 0.0
2016-Jan-31 08:30N 29°35' W 090°36'0 0.0
2016-Jan-31 07:30N 29°35' W 090°36'0 0.0
2016-Jan-31 06:30N 29°35' W 090°36'0 0.0
2016-Jan-31 05:30N 29°35' W 090°36'0 0.0
2016-Jan-31 04:29N 29°35' W 090°36'0 0.0
2016-Jan-31 03:30N 29°35' W 090°36'2 2.3
2016-Jan-31 02:33N 29°34' W 090°34'  

Dump ship's entire track history